Time;durP1;ratioP1;P1;durP2;ratioP2;P2;SDS_P1;SDS_P2;PMS_P1;PMS_P2;Temp;Humidity;BMP_temperature;BMP_pressure;BME280_temperature;BME280_humidity;BME280_pressure;Samples;Min_cycle;Max_cycle;Signal;HPM_P1;HPM_P2
2021/10/23 00:00:15;;;;;;;11.70;10.67;;;9.90;99.90;;;;;;5054405;28;20444;-77
2021/10/23 00:02:42;;;;;;;11.70;10.83;;;10.00;99.90;;;;;;5054198;28;20447;-78
2021/10/23 00:05:09;;;;;;;10.53;9.83;;;10.00;99.90;;;;;;5054266;28;20501;-78
2021/10/23 00:07:36;;;;;;;11.60;10.50;;;10.00;99.90;;;;;;5054142;28;20463;-78
2021/10/23 00:10:05;;;;;;;10.80;10.00;;;10.00;99.90;;;;;;5054066;28;20490;-79
2021/10/23 00:12:33;;;;;;;10.93;10.27;;;9.90;99.90;;;;;;5054311;28;20475;-78
2021/10/23 00:15:00;;;;;;;10.00;9.50;;;9.90;99.90;;;;;;5054122;28;20454;-79
2021/10/23 00:17:27;;;;;;;10.90;10.20;;;9.90;99.90;;;;;;5053599;28;20728;-80
2021/10/23 00:19:54;;;;;;;11.70;10.80;;;9.90;99.90;;;;;;5052916;28;20478;-81
2021/10/23 00:22:21;;;;;;;11.77;10.77;;;9.80;99.90;;;;;;5054040;28;20440;-80
2021/10/23 00:24:47;;;;;;;11.33;10.77;;;9.80;99.90;;;;;;5053994;28;20448;-78
2021/10/23 00:27:15;;;;;;;11.03;10.23;;;9.80;99.90;;;;;;5053358;28;20480;-77
2021/10/23 00:29:42;;;;;;;11.17;10.37;;;9.80;99.90;;;;;;5053859;28;20841;-80
2021/10/23 00:32:09;;;;;;;10.60;9.80;;;9.90;99.90;;;;;;5053772;28;20451;-80
2021/10/23 00:34:36;;;;;;;11.93;11.10;;;9.80;99.90;;;;;;5053854;28;20444;-79
2021/10/23 00:37:03;;;;;;;11.67;10.93;;;9.80;99.90;;;;;;5053726;28;20459;-79
2021/10/23 00:39:29;;;;;;;12.33;10.50;;;9.80;99.90;;;;;;5053626;28;20456;-79
2021/10/23 00:41:56;;;;;;;10.70;10.10;;;9.80;99.90;;;;;;5053341;28;20448;-79
2021/10/23 00:44:36;;;;;;;10.97;10.23;;;9.80;99.90;;;;;;5053617;28;20452;-79
2021/10/23 00:47:04;;;;;;;10.63;10.13;;;9.70;99.90;;;;;;5053527;28;20455;-78
2021/10/23 00:49:31;;;;;;;10.87;10.00;;;9.80;99.90;;;;;;5053376;28;20918;-78
2021/10/23 00:51:58;;;;;;;11.30;10.47;;;9.80;99.90;;;;;;5053220;28;20606;-79
2021/10/23 00:54:26;;;;;;;11.20;10.30;;;9.90;99.90;;;;;;5053254;28;20448;-78
2021/10/23 00:56:53;;;;;;;11.43;10.63;;;10.00;99.90;;;;;;5053072;28;20539;-77
2021/10/23 00:59:20;;;;;;;10.40;9.90;;;9.80;99.90;;;;;;5053057;28;20457;-77
2021/10/23 01:01:48;;;;;;;11.07;10.47;;;9.70;99.90;;;;;;5053308;28;20852;-78
2021/10/23 01:04:15;;;;;;;12.87;10.83;;;9.70;99.90;;;;;;5052968;28;20459;-79
2021/10/23 01:06:42;;;;;;;12.50;11.40;;;9.60;99.90;;;;;;5053041;28;20444;-82
2021/10/23 01:09:09;;;;;;;12.57;11.43;;;9.70;99.90;;;;;;5053177;28;20479;-82
2021/10/23 01:11:36;;;;;;;12.33;11.43;;;9.70;99.90;;;;;;5053066;28;20993;-78
2021/10/23 01:14:03;;;;;;;11.37;10.70;;;9.60;99.90;;;;;;5053151;28;20532;-78
2021/10/23 01:16:30;;;;;;;12.07;11.27;;;9.70;99.90;;;;;;5052776;28;20452;-78
2021/10/23 01:18:58;;;;;;;10.30;9.80;;;9.70;99.90;;;;;;5052848;28;20799;-79
2021/10/23 01:21:26;;;;;;;11.83;11.00;;;9.70;99.90;;;;;;5052880;28;20468;-78
2021/10/23 01:23:52;;;;;;;11.50;10.80;;;9.60;99.90;;;;;;5053079;28;20844;-78
2021/10/23 01:26:23;;;;;;;11.57;10.83;;;9.60;99.90;;;;;;5052862;28;20451;-78
2021/10/23 01:28:51;;;;;;;11.87;10.90;;;9.70;99.90;;;;;;5052619;28;20484;-80
2021/10/23 01:31:18;;;;;;;11.37;10.67;;;9.50;99.90;;;;;;5052750;28;20488;-79
2021/10/23 01:33:45;;;;;;;11.77;11.17;;;9.40;99.90;;;;;;5052709;28;20458;-80
2021/10/23 01:36:13;;;;;;;12.03;11.43;;;9.40;99.90;;;;;;5052537;28;20456;-80
2021/10/23 01:38:41;;;;;;;13.57;11.60;;;9.40;99.90;;;;;;5052424;28;20448;-79
2021/10/23 01:41:08;;;;;;;10.70;10.13;;;9.30;99.90;;;;;;5052585;28;20444;-79
2021/10/23 01:43:35;;;;;;;11.80;11.00;;;9.30;99.90;;;;;;5052683;28;20448;-79
2021/10/23 01:46:02;;;;;;;11.30;10.40;;;9.40;99.90;;;;;;5052315;28;20453;-79
2021/10/23 01:48:29;;;;;;;10.67;9.97;;;9.40;99.90;;;;;;5052353;28;20456;-78
2021/10/23 01:50:56;;;;;;;11.27;10.60;;;9.30;99.90;;;;;;5052482;28;20488;-77
2021/10/23 01:53:23;;;;;;;10.67;9.97;;;9.30;99.90;;;;;;5052314;28;20787;-77
2021/10/23 01:55:52;;;;;;;11.63;10.93;;;9.30;99.90;;;;;;5052327;28;20483;-77
2021/10/23 01:58:20;;;;;;;12.20;11.43;;;9.30;99.90;;;;;;5052047;28;20552;-77
2021/10/23 02:00:47;;;;;;;11.73;11.00;;;9.20;99.90;;;;;;5052160;28;20467;-77
2021/10/23 02:03:13;;;;;;;12.70;11.90;;;9.20;99.90;;;;;;5051918;28;20456;-77
2021/10/23 02:05:40;;;;;;;11.70;10.63;;;9.10;99.90;;;;;;5052197;28;20451;-77
2021/10/23 02:08:07;;;;;;;12.00;10.93;;;9.00;99.90;;;;;;5052043;28;20450;-77
2021/10/23 02:10:34;;;;;;;11.87;10.83;;;9.00;99.90;;;;;;5052156;28;20476;-76
2021/10/23 02:13:02;;;;;;;10.97;10.27;;;8.90;99.90;;;;;;5052034;28;20451;-77
2021/10/23 02:15:29;;;;;;;11.80;11.00;;;8.90;99.90;;;;;;5051771;28;20760;-77
2021/10/23 02:17:55;;;;;;;11.23;10.53;;;8.90;99.90;;;;;;5051899;28;20456;-77
2021/10/23 02:20:22;;;;;;;11.00;10.50;;;8.90;99.90;;;;;;5051391;28;20978;-77
2021/10/23 02:22:49;;;;;;;11.20;10.50;;;8.90;99.90;;;;;;5051803;28;20448;-77
2021/10/23 02:25:16;;;;;;;11.37;10.47;;;8.90;99.90;;;;;;5051856;28;20448;-83
2021/10/23 02:27:42;;;;;;;13.50;12.50;;;8.90;99.90;;;;;;5051701;28;20575;-82
2021/10/23 02:30:11;;;;;;;13.80;12.50;;;8.80;99.90;;;;;;5051737;28;20451;-82
2021/10/23 02:32:38;;;;;;;13.40;12.10;;;8.80;99.90;;;;;;5051626;28;20815;-82
2021/10/23 02:35:06;;;;;;;12.77;11.97;;;8.70;99.90;;;;;;5052041;28;20482;-80
2021/10/23 02:37:33;;;;;;;11.97;10.97;;;8.70;99.90;;;;;;5051671;28;20491;-80
2021/10/23 02:39:59;;;;;;;11.73;10.90;;;8.70;99.90;;;;;;5051462;28;20538;-80
2021/10/23 02:42:26;;;;;;;12.63;11.93;;;8.70;99.90;;;;;;5051348;28;20753;-82
2021/10/23 02:44:53;;;;;;;11.80;11.20;;;8.70;99.90;;;;;;5051530;28;20456;-81
2021/10/23 02:47:21;;;;;;;12.77;11.90;;;8.60;99.90;;;;;;5051544;28;20455;-81
2021/10/23 02:49:47;;;;;;;14.77;11.77;;;8.70;99.90;;;;;;5051388;28;20444;-81
2021/10/23 02:52:14;;;;;;;12.90;11.73;;;8.70;99.90;;;;;;5051201;28;20492;-79
2021/10/23 02:54:41;;;;;;;13.27;12.10;;;8.70;99.90;;;;;;5051259;28;20453;-79
2021/10/23 02:57:07;;;;;;;12.57;11.57;;;8.60;99.90;;;;;;5051063;28;20452;-80
2021/10/23 02:59:34;;;;;;;11.60;11.00;;;8.70;99.90;;;;;;5051289;28;20444;-80
2021/10/23 03:02:01;;;;;;;11.77;10.97;;;8.70;99.90;;;;;;5051015;28;20451;-80
2021/10/23 03:04:29;;;;;;;11.63;11.00;;;8.70;99.90;;;;;;5051159;28;20444;-79
2021/10/23 03:06:55;;;;;;;11.63;10.77;;;8.80;99.90;;;;;;5051338;28;20451;-79
2021/10/23 03:09:22;;;;;;;12.90;11.90;;;8.80;99.90;;;;;;5051150;28;20462;-79
2021/10/23 03:11:49;;;;;;;12.10;11.40;;;8.80;99.90;;;;;;5051321;28;20488;-79
2021/10/23 03:14:16;;;;;;;15.47;14.23;;;8.80;99.90;;;;;;5050934;28;20965;-79
2021/10/23 03:16:43;;;;;;;12.83;11.90;;;8.80;99.90;;;;;;5050842;28;20530;-79
2021/10/23 03:19:09;;;;;;;12.40;11.80;;;8.80;99.90;;;;;;5050831;28;20467;-80
2021/10/23 03:21:37;;;;;;;12.43;11.43;;;8.90;99.90;;;;;;5051055;28;20475;-80
2021/10/23 03:24:05;;;;;;;12.33;11.50;;;8.80;99.90;;;;;;5051002;28;20460;-78
2021/10/23 03:26:31;;;;;;;12.17;11.33;;;8.90;99.90;;;;;;5050604;28;20448;-77
2021/10/23 03:28:58;;;;;;;13.20;12.20;;;8.90;99.90;;;;;;5050871;28;20463;-80
2021/10/23 03:31:25;;;;;;;12.40;11.43;;;8.90;99.90;;;;;;5052349;28;20514;-79
2021/10/23 03:33:52;;;;;;;12.50;11.70;;;8.80;99.90;;;;;;5054809;28;20447;-80
2021/10/23 03:36:19;;;;;;;12.93;11.90;;;8.80;99.90;;;;;;5054904;28;20459;-79
2021/10/23 03:38:47;;;;;;;11.87;11.17;;;8.80;99.90;;;;;;5054921;28;20449;-78
2021/10/23 03:41:14;;;;;;;12.60;11.90;;;8.80;99.90;;;;;;5055584;28;20451;-78
2021/10/23 03:43:40;;;;;;;12.93;11.83;;;8.90;99.90;;;;;;5057176;28;20448;-78
2021/10/23 03:46:07;;;;;;;12.37;11.67;;;8.90;99.90;;;;;;5056721;28;20482;-78
2021/10/23 03:48:34;;;;;;;12.83;11.93;;;8.90;99.90;;;;;;5055872;28;20957;-79
2021/10/23 03:51:01;;;;;;;12.90;11.90;;;8.90;99.90;;;;;;5054710;28;20452;-78
2021/10/23 03:53:27;;;;;;;12.70;11.70;;;9.00;99.90;;;;;;5054482;28;20451;-78
2021/10/23 03:55:55;;;;;;;12.70;11.90;;;8.90;99.90;;;;;;5054455;28;20452;-78
2021/10/23 03:58:22;;;;;;;12.50;11.60;;;8.90;99.90;;;;;;5054385;28;20458;-78
2021/10/23 04:00:49;;;;;;;12.13;11.03;;;8.90;99.90;;;;;;5054735;28;20441;-79
2021/10/23 04:03:15;;;;;;;11.37;10.77;;;8.90;99.90;;;;;;5054347;28;20478;-79
2021/10/23 04:05:42;;;;;;;12.50;11.80;;;8.90;99.90;;;;;;5054388;28;20819;-81
2021/10/23 04:08:09;;;;;;;12.70;11.70;;;8.90;99.90;;;;;;5054347;28;20451;-78
2021/10/23 04:10:36;;;;;;;12.87;11.80;;;8.80;99.90;;;;;;5054287;28;20451;-79
2021/10/23 04:13:04;;;;;;;12.00;11.40;;;8.80;99.90;;;;;;5054137;28;20487;-79
2021/10/23 04:15:32;;;;;;;11.83;11.03;;;8.80;99.90;;;;;;5054257;28;20456;-79
2021/10/23 04:17:59;;;;;;;11.73;10.83;;;8.70;99.90;;;;;;5054224;28;20545;-79
2021/10/23 04:20:26;;;;;;;11.83;11.13;;;8.70;99.90;;;;;;5054201;28;20471;-79
2021/10/23 04:22:52;;;;;;;11.70;11.10;;;8.70;99.90;;;;;;5054318;28;20448;-78
2021/10/23 04:25:19;;;;;;;12.97;12.03;;;8.70;99.90;;;;;;5054014;28;20459;-79
2021/10/23 04:27:47;;;;;;;12.10;11.40;;;8.60;99.90;;;;;;5053623;28;20890;-78
2021/10/23 04:30:15;;;;;;;12.47;11.60;;;8.60;99.90;;;;;;5053750;28;20486;-76
2021/10/23 04:32:42;;;;;;;12.23;11.33;;;8.60;99.90;;;;;;5053733;28;20885;-74
2021/10/23 04:35:09;;;;;;;12.00;11.00;;;8.60;99.90;;;;;;5053877;28;20862;-76
2021/10/23 04:37:35;;;;;;;11.43;10.83;;;8.50;99.90;;;;;;5053490;28;20938;-76
2021/10/23 04:40:02;;;;;;;12.40;11.63;;;8.60;99.90;;;;;;5053548;28;20475;-75
2021/10/23 04:42:29;;;;;;;12.07;11.37;;;8.60;99.90;;;;;;5053231;28;20474;-75
2021/10/23 04:44:55;;;;;;;13.07;12.07;;;8.60;99.90;;;;;;5053784;28;20818;-77
2021/10/23 04:47:24;;;;;;;11.07;10.43;;;8.70;99.90;;;;;;5053420;28;20555;-75
2021/10/23 04:49:51;;;;;;;12.77;11.70;;;8.60;99.90;;;;;;5053601;28;20447;-75
2021/10/23 04:52:17;;;;;;;12.33;11.53;;;8.60;99.90;;;;;;5053523;28;20486;-75
2021/10/23 04:54:44;;;;;;;11.13;10.57;;;8.60;99.90;;;;;;5053171;28;20460;-76
2021/10/23 04:57:11;;;;;;;12.33;11.53;;;8.60;99.90;;;;;;5053206;28;20459;-77
2021/10/23 04:59:38;;;;;;;11.27;10.67;;;8.60;99.90;;;;;;5053324;28;20455;-77
2021/10/23 05:02:05;;;;;;;12.33;11.23;;;8.70;99.90;;;;;;5053419;28;20440;-77
2021/10/23 05:04:33;;;;;;;12.33;11.57;;;8.60;99.90;;;;;;5053119;28;20444;-79
2021/10/23 05:07:00;;;;;;;12.13;11.13;;;8.60;99.90;;;;;;5053219;28;20452;-77
2021/10/23 05:09:26;;;;;;;11.37;10.67;;;8.60;99.90;;;;;;5052958;28;20440;-78
2021/10/23 05:11:53;;;;;;;13.37;12.20;;;8.60;99.90;;;;;;5053056;28;20491;-78
2021/10/23 05:14:20;;;;;;;11.40;10.53;;;8.60;99.90;;;;;;5053152;28;20459;-78
2021/10/23 05:16:47;;;;;;;12.03;11.10;;;8.50;99.90;;;;;;5052966;28;20456;-79
2021/10/23 05:19:14;;;;;;;12.87;11.97;;;8.60;99.90;;;;;;5052822;28;20810;-79
2021/10/23 05:21:42;;;;;;;13.00;11.93;;;8.60;99.90;;;;;;5052880;28;20828;-78
2021/10/23 05:24:09;;;;;;;12.23;11.63;;;8.60;99.90;;;;;;5052753;28;20447;-77
2021/10/23 05:26:36;;;;;;;13.53;12.43;;;8.50;99.90;;;;;;5052823;28;20455;-84
2021/10/23 05:29:03;;;;;;;13.60;12.47;;;8.50;99.90;;;;;;5052788;28;20463;-79
2021/10/23 05:31:29;;;;;;;13.17;12.23;;;8.50;99.90;;;;;;5052526;28;20509;-80
2021/10/23 05:33:56;;;;;;;13.13;12.33;;;8.40;99.90;;;;;;5052784;28;20448;-79
2021/10/23 05:36:23;;;;;;;11.77;11.07;;;8.50;99.90;;;;;;5052611;28;20448;-80
2021/10/23 05:38:51;;;;;;;13.97;12.37;;;8.50;99.90;;;;;;5052801;28;20843;-78
2021/10/23 05:41:17;;;;;;;13.80;12.90;;;8.50;99.90;;;;;;5052258;28;20451;-79
2021/10/23 05:43:44;;;;;;;12.50;11.83;;;8.60;99.90;;;;;;5052424;28;20448;-77
2021/10/23 05:46:10;;;;;;;13.60;12.30;;;8.60;99.90;;;;;;5052421;28;20452;-78
2021/10/23 05:48:37;;;;;;;13.33;12.53;;;8.70;99.90;;;;;;5053868;28;20448;-78
2021/10/23 05:51:04;;;;;;;12.03;11.43;;;8.60;99.90;;;;;;5052495;28;20456;-78
2021/10/23 05:53:30;;;;;;;13.20;12.20;;;8.60;99.90;;;;;;5051411;28;20488;-76
2021/10/23 05:55:58;;;;;;;12.20;11.60;;;8.70;99.90;;;;;;5052267;28;20472;-76
2021/10/23 05:58:28;;;;;;;13.43;12.30;;;8.80;99.90;;;;;;5052193;28;20451;-76
2021/10/23 06:00:58;;;;;;;13.03;12.33;;;8.70;99.90;;;;;;5052207;28;20505;-76
2021/10/23 06:03:25;;;;;;;13.60;12.70;;;8.70;99.90;;;;;;5051918;28;20964;-77
2021/10/23 06:05:52;;;;;;;13.10;12.30;;;8.80;99.90;;;;;;5051955;28;20509;-76
2021/10/23 06:08:19;;;;;;;12.50;11.77;;;8.80;99.90;;;;;;5051653;28;20447;-76
2021/10/23 06:10:45;;;;;;;12.87;11.90;;;8.80;99.90;;;;;;5051523;28;20460;-77
2021/10/23 06:13:15;;;;;;;13.53;12.57;;;8.90;99.90;;;;;;5051371;28;20476;-77
2021/10/23 06:15:41;;;;;;;12.23;11.43;;;8.90;99.90;;;;;;5051695;28;20539;-77
2021/10/23 06:18:08;;;;;;;12.60;11.90;;;9.00;99.90;;;;;;5051434;28;20459;-77
2021/10/23 06:20:35;;;;;;;12.60;11.70;;;8.90;99.90;;;;;;5051494;28;21000;-77
2021/10/23 06:23:02;;;;;;;12.67;11.70;;;9.00;99.90;;;;;;5051795;28;20449;-77
2021/10/23 06:25:28;;;;;;;12.70;11.80;;;9.00;99.90;;;;;;5051702;28;20462;-76
2021/10/23 06:27:57;;;;;;;12.00;11.20;;;9.00;99.90;;;;;;5051320;28;20566;-79
2021/10/23 06:30:26;;;;;;;12.50;11.73;;;9.00;99.90;;;;;;5051629;28;20813;-78
2021/10/23 06:32:54;;;;;;;13.53;12.73;;;9.00;99.90;;;;;;5051223;28;20495;-80
2021/10/23 06:35:22;;;;;;;11.87;11.07;;;9.00;99.90;;;;;;5051759;28;20444;-78
2021/10/23 06:37:48;;;;;;;11.87;11.07;;;9.00;99.90;;;;;;5051551;28;20452;-77
2021/10/23 06:40:16;;;;;;;12.33;11.50;;;9.10;99.90;;;;;;5051445;28;20806;-77
2021/10/23 06:42:44;;;;;;;12.40;11.40;;;9.00;99.90;;;;;;5051223;28;20954;-77
2021/10/23 06:45:13;;;;;;;11.63;10.93;;;9.00;99.90;;;;;;5051192;28;20452;-79
2021/10/23 06:47:41;;;;;;;11.67;10.87;;;9.00;99.90;;;;;;5051308;28;20472;-77
2021/10/23 06:50:10;;;;;;;11.13;10.43;;;8.90;99.90;;;;;;5051444;28;20495;-78
2021/10/23 06:52:37;;;;;;;11.53;10.63;;;9.00;99.90;;;;;;5050979;28;20491;-76
2021/10/23 06:55:06;;;;;;;11.57;10.70;;;9.00;99.90;;;;;;5051278;28;20459;-78
2021/10/23 06:57:32;;;;;;;13.30;12.27;;;9.10;99.90;;;;;;5050710;28;20444;-78
2021/10/23 06:59:59;;;;;;;12.50;11.60;;;9.10;99.90;;;;;;5050743;28;20454;-82
2021/10/23 07:02:26;;;;;;;12.60;11.50;;;9.20;99.90;;;;;;5051075;28;20455;-84
2021/10/23 07:04:54;;;;;;;11.47;10.87;;;9.30;99.90;;;;;;5050781;28;20452;-83
2021/10/23 07:07:20;;;;;;;12.30;11.30;;;9.30;99.90;;;;;;5050911;28;20564;-79
2021/10/23 07:09:47;;;;;;;11.90;11.20;;;9.30;99.90;;;;;;5050798;28;20456;-81
2021/10/23 07:12:14;;;;;;;12.87;11.70;;;9.40;99.90;;;;;;5050790;28;20475;-82
2021/10/23 07:14:40;;;;;;;13.80;12.50;;;9.50;99.90;;;;;;5050804;28;20455;-83
2021/10/23 07:17:07;;;;;;;13.00;12.00;;;9.50;99.90;;;;;;5051336;28;20454;-83
2021/10/23 07:19:34;;;;;;;12.07;11.37;;;9.60;99.90;;;;;;5050344;28;21041;-83
2021/10/23 07:22:02;;;;;;;12.17;11.27;;;9.80;99.90;;;;;;5050896;28;20469;-82
2021/10/23 07:24:29;;;;;;;13.97;12.50;;;9.90;99.90;;;;;;5050742;28;20451;-79
2021/10/23 07:26:55;;;;;;;11.50;10.87;;;9.90;99.90;;;;;;5050517;28;20475;-85
2021/10/23 07:29:22;;;;;;;12.37;11.43;;;9.90;99.90;;;;;;5050725;28;20456;-78
2021/10/23 07:31:49;;;;;;;11.03;10.43;;;10.10;99.90;;;;;;5050676;28;20961;-75
2021/10/23 07:34:15;;;;;;;11.27;10.47;;;10.30;99.90;;;;;;5050420;28;20471;-79
2021/10/23 07:36:42;;;;;;;11.90;11.17;;;10.40;99.90;;;;;;5050579;28;20452;-80
2021/10/23 07:39:10;;;;;;;10.90;10.10;;;10.50;99.90;;;;;;5047082;28;20456;-80
2021/10/23 07:41:38;;;;;;;11.83;11.13;;;11.00;99.90;;;;;;5050617;28;20444;-80
2021/10/23 07:44:05;;;;;;;12.80;12.00;;;11.70;99.90;;;;;;5050835;28;20518;-80
2021/10/23 07:46:32;;;;;;;11.00;10.50;;;12.50;99.90;;;;;;5050333;28;20448;-79
2021/10/23 07:48:59;;;;;;;13.70;12.33;;;12.90;99.90;;;;;;5050483;28;20460;-80
2021/10/23 07:51:25;;;;;;;12.40;11.20;;;13.20;99.90;;;;;;5050647;28;20446;-80
2021/10/23 07:53:52;;;;;;;12.40;11.00;;;13.90;99.90;;;;;;5050585;28;20487;-79
2021/10/23 07:56:20;;;;;;;12.03;11.27;;;14.20;99.90;;;;;;5050339;28;20950;-79
2021/10/23 07:58:47;;;;;;;11.73;11.23;;;14.70;99.90;;;;;;5050462;28;20952;-79
2021/10/23 08:01:15;;;;;;;11.73;10.63;;;15.00;99.90;;;;;;5050384;28;20843;-79
2021/10/23 08:03:42;;;;;;;11.63;10.70;;;14.60;99.70;;;;;;5050207;28;20506;-79
2021/10/23 08:06:09;;;;;;;12.37;11.33;;;14.50;99.80;;;;;;5050242;28;21060;-78
2021/10/23 08:08:36;;;;;;;12.07;11.27;;;14.30;99.90;;;;;;5050476;28;20455;-76
2021/10/23 08:11:04;;;;;;;11.87;10.87;;;14.60;99.90;;;;;;5049861;28;20454;-77
2021/10/23 08:13:32;;;;;;;12.93;11.57;;;15.30;98.90;;;;;;5050136;28;20582;-79
2021/10/23 08:16:00;;;;;;;12.17;11.47;;;15.90;97.60;;;;;;5050057;28;20448;-79
2021/10/23 08:18:27;;;;;;;11.17;10.47;;;16.20;96.90;;;;;;5053055;28;20447;-76
2021/10/23 08:20:53;;;;;;;12.70;11.50;;;16.70;95.80;;;;;;5053813;28;20467;-77
2021/10/23 08:23:20;;;;;;;12.13;11.33;;;17.60;94.10;;;;;;5054661;28;20444;-77
2021/10/23 08:25:47;;;;;;;13.93;11.63;;;17.90;93.20;;;;;;5054097;28;20839;-77
2021/10/23 08:28:14;;;;;;;11.90;11.40;;;18.60;92.00;;;;;;5054167;28;20498;-76
2021/10/23 08:30:42;;;;;;;12.37;11.57;;;18.60;91.40;;;;;;5053461;28;20452;-77
2021/10/23 08:33:09;;;;;;;12.53;11.63;;;18.90;90.90;;;;;;5053201;28;20499;-79
2021/10/23 08:35:36;;;;;;;11.90;11.03;;;19.40;89.30;;;;;;5053529;28;20458;-76
2021/10/23 08:38:03;;;;;;;11.83;11.13;;;18.90;90.00;;;;;;5053900;28;20455;-78
2021/10/23 08:40:30;;;;;;;12.43;11.70;;;18.60;90.70;;;;;;5053241;28;20506;-78
2021/10/23 08:42:57;;;;;;;12.57;11.70;;;19.50;89.40;;;;;;5053658;28;20546;-78
2021/10/23 08:45:24;;;;;;;12.67;11.87;;;20.70;85.80;;;;;;5053676;28;20795;-78
2021/10/23 08:47:54;;;;;;;12.70;11.90;;;21.50;82.30;;;;;;5053698;28;20502;-77
2021/10/23 08:50:23;;;;;;;12.33;11.40;;;21.60;79.40;;;;;;5053396;28;20491;-78
2021/10/23 08:52:53;;;;;;;13.57;12.40;;;21.70;78.30;;;;;;5053351;28;20551;-78
2021/10/23 08:55:20;;;;;;;14.20;12.90;;;21.70;78.60;;;;;;5053311;28;20966;-79
2021/10/23 08:57:47;;;;;;;13.17;12.37;;;22.70;76.40;;;;;;5053172;28;20482;-79
2021/10/23 09:00:15;;;;;;;12.20;11.70;;;22.00;75.60;;;;;;5052988;28;20454;-80
2021/10/23 09:02:43;;;;;;;14.00;13.10;;;21.50;76.80;;;;;;5052901;28;20452;-80
2021/10/23 09:05:11;;;;;;;13.07;12.17;;;22.00;75.20;;;;;;5053129;28;20467;-79
2021/10/23 09:07:42;;;;;;;12.47;11.87;;;22.40;73.90;;;;;;5053098;28;20454;-79
2021/10/23 09:10:09;;;;;;;13.37;12.57;;;22.50;73.90;;;;;;5053004;28;20448;-79
2021/10/23 09:12:38;;;;;;;12.57;11.77;;;22.70;73.50;;;;;;5052921;28;20460;-79
2021/10/23 09:15:07;;;;;;;12.83;12.13;;;23.10;72.20;;;;;;5052799;28;20456;-79
2021/10/23 09:17:34;;;;;;;13.40;12.33;;;23.00;71.20;;;;;;5052836;28;20475;-79
2021/10/23 09:20:08;;;;;;;13.80;12.90;;;23.00;72.60;;;;;;5052655;28;20490;-79
2021/10/23 09:22:38;;;;;;;13.27;12.23;;;24.60;68.30;;;;;;5052707;28;20455;-79
2021/10/23 09:25:18;;;;;;;13.87;13.03;;;24.60;67.90;;;;;;5052787;28;20460;-79
2021/10/23 09:27:49;;;;;;;12.97;12.33;;;23.90;68.60;;;;;;5052079;28;20480;-79
2021/10/23 09:30:17;;;;;;;13.03;12.07;;;23.70;66.60;;;;;;5051575;28;20448;-78
2021/10/23 09:32:50;;;;;;;13.20;12.40;;;23.00;69.10;;;;;;5035277;28;20499;-79
2021/10/23 09:35:18;;;;;;;13.53;12.73;;;23.10;68.60;;;;;;5032254;28;20499;-79
2021/10/23 09:37:47;;;;;;;13.30;12.50;;;23.80;67.20;;;;;;5032594;28;20449;-78
2021/10/23 09:40:18;;;;;;;13.60;12.50;;;24.40;64.80;;;;;;5032216;28;20448;-78
2021/10/23 09:42:45;;;;;;;13.40;12.57;;;24.00;64.60;;;;;;5032571;28;20453;-78
2021/10/23 09:45:11;;;;;;;12.33;11.73;;;23.40;66.40;;;;;;5032237;28;20448;-79
2021/10/23 09:47:40;;;;;;;13.30;12.60;;;24.10;65.40;;;;;;5032291;28;20452;-78
2021/10/23 09:50:10;;;;;;;13.10;12.20;;;24.50;63.60;;;;;;5032332;28;20449;-79
2021/10/23 09:53:01;;;;;;;12.63;11.87;;;25.20;63.00;;;;;;5032176;28;20457;-76
2021/10/23 09:55:31;;;;;;;12.97;12.47;;;25.10;61.30;;;;;;5031743;28;20441;-78
2021/10/23 09:58:13;;;;;;;13.53;12.73;;;25.30;61.10;;;;;;5029750;28;20499;-78
2021/10/23 10:00:42;;;;;;;13.53;12.83;;;25.20;61.60;;;;;;5014835;28;20464;-77
2021/10/23 10:03:09;;;;;;;13.20;12.40;;;25.80;59.30;;;;;;5032412;28;20445;-78
2021/10/23 10:05:36;;;;;;;12.83;12.23;;;25.90;58.20;;;;;;5032308;28;20445;-77
2021/10/23 10:08:09;;;;;;;12.90;12.30;;;25.50;58.20;;;;;;5031950;28;20441;-77
2021/10/23 10:10:38;;;;;;;13.20;12.60;;;25.90;58.30;;;;;;5032008;28;20441;-78
2021/10/23 10:13:06;;;;;;;12.60;12.00;;;26.20;56.70;;;;;;5032181;28;20455;-78
2021/10/23 10:15:33;;;;;;;12.63;11.87;;;26.40;55.10;;;;;;5029912;28;20499;-78
2021/10/23 10:18:02;;;;;;;13.17;12.47;;;26.10;55.60;;;;;;5032095;28;20452;-77
2021/10/23 10:20:30;;;;;;;12.00;11.50;;;25.70;55.90;;;;;;5029652;28;20968;-79
2021/10/23 10:22:57;;;;;;;13.00;12.37;;;26.00;56.10;;;;;;5031774;28;20547;-78
2021/10/23 10:25:26;;;;;;;13.80;12.90;;;25.50;55.40;;;;;;5031714;28;20460;-78
2021/10/23 10:27:53;;;;;;;12.27;11.67;;;24.80;57.10;;;;;;5031519;28;20504;-77
2021/10/23 10:30:23;;;;;;;12.33;11.83;;;24.70;57.10;;;;;;5031543;28;20555;-77
2021/10/23 10:32:50;;;;;;;11.60;11.10;;;25.20;56.10;;;;;;5031884;28;20464;-78
2021/10/23 10:35:44;;;;;;;12.70;12.10;;;25.70;54.50;;;;;;5031513;28;20945;-78
2021/10/23 10:38:31;;;;;;;13.50;12.70;;;25.50;53.50;;;;;;5031491;28;20461;-78
2021/10/23 10:44:13;;;;;;;11.83;11.33;;;25.40;53.30;;;;;;4995833;28;20519;-76
2021/10/23 10:47:16;;;;;;;13.17;12.57;;;25.00;55.00;;;;;;5031168;28;20440;-77
2021/10/23 10:49:53;;;;;;;13.87;13.00;;;25.80;54.00;;;;;;5031457;28;20449;-78
2021/10/23 10:52:52;;;;;;;13.13;12.23;;;23.20;57.40;;;;;;5031725;28;20555;-78
2021/10/23 10:55:20;;;;;;;13.10;12.40;;;21.60;60.50;;;;;;5011680;28;20489;-76
2021/10/23 10:58:02;;;;;;;14.03;13.33;;;21.50;63.10;;;;;;5011231;28;20461;-80
2021/10/23 11:01:15;;;;;;;13.37;12.50;;;21.10;61.50;;;;;;5011479;28;20449;-78
2021/10/23 11:04:01;;;;;;;12.47;11.87;;;20.70;63.00;;;;;;5011374;28;20450;-80
2021/10/23 11:06:54;;;;;;;12.43;11.70;;;21.30;62.70;;;;;;5011246;28;20877;-77
2021/10/23 11:09:30;;;;;;;12.27;11.37;;;20.50;63.80;;;;;;5011146;28;20465;-78
2021/10/23 11:12:19;;;;;;;12.33;11.70;;;19.20;67.20;;;;;;5011140;28;20464;-77
2021/10/23 11:14:48;;;;;;;11.87;11.37;;;18.70;72.70;;;;;;5011247;28;20659;-77
2021/10/23 11:17:25;;;;;;;12.53;11.73;;;19.30;70.30;;;;;;5011077;28;20450;-78
2021/10/23 11:19:54;;;;;;;12.70;12.00;;;20.40;67.40;;;;;;5014797;28;20496;-78
2021/10/23 11:22:23;;;;;;;12.60;12.00;;;22.10;64.00;;;;;;5030855;28;20510;-76
2021/10/23 11:24:52;;;;;;;12.87;12.20;;;23.30;60.60;;;;;;5030741;28;20925;-78
2021/10/23 11:27:30;;;;;;;13.27;12.40;;;23.20;57.80;;;;;;5030469;28;20487;-80
2021/10/23 11:30:14;;;;;;;12.70;12.10;;;22.50;58.10;;;;;;5030795;28;20891;-76
2021/10/23 11:32:42;;;;;;;11.97;11.47;;;23.30;56.10;;;;;;5030650;28;20445;-78
2021/10/23 11:35:10;;;;;;;12.83;12.13;;;24.20;56.50;;;;;;5030277;28;20497;-77
2021/10/23 11:37:37;;;;;;;13.77;13.17;;;25.00;55.60;;;;;;5030599;28;20511;-77
2021/10/23 11:40:06;;;;;;;12.70;12.00;;;26.10;53.80;;;;;;5030431;28;20989;-76
2021/10/23 11:42:35;;;;;;;12.60;11.97;;;26.60;52.70;;;;;;5030653;28;20465;-77
2021/10/23 11:45:07;;;;;;;12.93;12.20;;;25.80;53.10;;;;;;5030630;28;20452;-78
2021/10/23 11:47:35;;;;;;;12.43;11.77;;;24.90;54.30;;;;;;5030529;28;20484;-79
2021/10/23 11:50:04;;;;;;;13.03;12.33;;;24.90;53.50;;;;;;5030314;28;20461;-80
2021/10/23 11:52:33;;;;;;;13.00;12.10;;;24.00;54.40;;;;;;5031907;28;20456;-79
2021/10/23 11:55:01;;;;;;;12.80;12.10;;;21.60;55.90;;;;;;5034323;28;20485;-79
2021/10/23 11:57:35;;;;;;;13.33;12.30;;;19.70;59.70;;;;;;5033969;28;20945;-76
2021/10/23 12:00:02;;;;;;;11.27;10.67;;;17.70;64.80;;;;;;5034155;28;20485;-79
2021/10/23 12:02:50;;;;;;;12.00;11.30;;;16.30;69.80;;;;;;5033844;28;20456;-80
2021/10/23 12:05:21;;;;;;;12.53;12.03;;;15.80;73.60;;;;;;5034297;28;20543;-77
2021/10/23 12:07:49;;;;;;;12.03;11.33;;;15.50;76.00;;;;;;5034152;28;20489;-79
2021/10/23 12:10:15;;;;;;;11.93;10.70;;;15.10;79.70;;;;;;5034045;28;20463;-79
2021/10/23 12:12:42;;;;;;;11.77;11.07;;;14.90;80.70;;;;;;5033889;28;20947;-79
2021/10/23 12:15:18;;;;;;;11.47;10.83;;;14.70;82.50;;;;;;5047069;28;20475;-78
2021/10/23 12:17:57;;;;;;;11.53;10.93;;;14.40;84.30;;;;;;5051065;28;20455;-78
2021/10/23 12:20:24;;;;;;;11.03;10.53;;;15.10;84.50;;;;;;5053868;28;20474;-79
2021/10/23 12:22:50;;;;;;;10.87;10.37;;;16.80;75.20;;;;;;5053736;28;20440;-79
2021/10/23 12:25:17;;;;;;;10.70;10.30;;;18.20;68.00;;;;;;5053672;28;20474;-80
2021/10/23 12:27:44;;;;;;;12.57;11.97;;;19.50;63.90;;;;;;5053537;28;20487;-81
2021/10/23 12:30:13;;;;;;;11.50;10.90;;;20.70;59.30;;;;;;5053229;28;20470;-81
2021/10/23 12:32:42;;;;;;;10.80;10.40;;;20.80;57.80;;;;;;5053506;28;20521;-82
2021/10/23 12:35:11;;;;;;;12.30;11.50;;;21.20;58.00;;;;;;5053734;28;20513;-80
2021/10/23 12:37:44;;;;;;;12.20;11.60;;;21.30;57.50;;;;;;5053829;28;20452;-77
2021/10/23 12:40:19;;;;;;;12.17;11.70;;;20.60;58.00;;;;;;5053444;28;20444;-85
2021/10/23 12:42:48;;;;;;;12.10;11.30;;;19.50;60.60;;;;;;5051293;28;20890;-81